createdAt,value
2017-09-20T00:00:13.832Z,11.0
2017-09-20T00:01:14.487Z,10.9
2017-09-20T00:02:15.141Z,10.8
2017-09-20T00:03:16.095Z,10.8
2017-09-20T00:04:16.757Z,10.9
2017-09-20T00:05:17.407Z,10.9
2017-09-20T00:06:18.062Z,10.9
2017-09-20T00:07:18.717Z,10.8
2017-09-20T00:08:19.622Z,10.8
2017-09-20T00:09:20.276Z,10.8
2017-09-20T00:10:20.932Z,10.8
2017-09-20T00:11:21.586Z,10.8
2017-09-20T00:12:22.276Z,10.8
2017-09-20T00:13:23.230Z,10.8
2017-09-20T00:14:23.885Z,10.8
2017-09-20T00:15:24.541Z,10.7
2017-09-20T00:16:25.195Z,10.6
2017-09-20T00:17:25.849Z,10.6
2017-09-20T00:18:26.757Z,10.5
2017-09-20T00:19:27.407Z,10.5
2017-09-20T00:20:28.063Z,10.6
2017-09-20T00:21:28.716Z,10.5
2017-09-20T00:22:29.372Z,10.5
2017-09-20T00:23:30.277Z,10.5
2017-09-20T00:24:30.931Z,10.5
2017-09-20T00:25:31.588Z,10.6
2017-09-20T00:26:32.242Z,10.5
2017-09-20T00:27:32.897Z,10.4
2017-09-20T00:28:33.851Z,10.4
2017-09-20T00:29:34.541Z,10.3
2017-09-20T00:30:35.195Z,10.2
2017-09-20T00:31:35.850Z,10.3
2017-09-20T00:32:36.506Z,10.2
2017-09-20T00:33:37.409Z,10.1
2017-09-20T00:34:38.064Z,10.2
2017-09-20T00:35:38.718Z,10.1
2017-09-20T00:36:39.371Z,10.1
2017-09-20T00:37:40.025Z,10.1
2017-09-20T00:38:40.978Z,10.1
2017-09-20T00:39:41.634Z,10.1
2017-09-20T00:40:42.288Z,10.1
2017-09-20T00:41:42.942Z,10.2
2017-09-20T00:42:43.595Z,10.1
2017-09-20T00:43:44.501Z,10.0
2017-09-20T00:44:45.155Z,10.1
2017-09-20T00:45:45.812Z,9.9
2017-09-20T00:46:46.463Z,10.0
2017-09-20T00:47:47.117Z,10.1
2017-09-20T00:48:48.021Z,10.0
2017-09-20T00:49:48.676Z,10.1
2017-09-20T00:50:49.330Z,10.0
2017-09-20T00:51:49.982Z,10.0
2017-09-20T00:52:50.637Z,10.0
2017-09-20T00:53:51.543Z,10.0
2017-09-20T00:54:52.195Z,10.0
2017-09-20T00:55:52.850Z,10.0
2017-09-20T00:56:53.504Z,10.0
2017-09-20T00:57:54.156Z,9.9
2017-09-20T00:58:55.059Z,9.8
2017-09-20T00:59:55.715Z,9.8
2017-09-20T01:00:56.368Z,9.8
2017-09-20T01:01:57.020Z,9.8
2017-09-20T01:02:57.672Z,9.9
2017-09-20T01:03:58.577Z,9.9
2017-09-20T01:04:59.229Z,9.8
2017-09-20T01:05:59.880Z,9.8
2017-09-20T01:07:00.569Z,9.9
2017-09-20T01:08:01.222Z,9.8
2017-09-20T01:09:02.176Z,9.8
2017-09-20T01:10:02.830Z,9.9
2017-09-20T01:11:03.482Z,9.8
2017-09-20T01:12:04.136Z,9.9
2017-09-20T01:13:04.826Z,9.9
2017-09-20T01:14:05.764Z,9.8
2017-09-20T01:15:06.418Z,9.9
2017-09-20T01:16:07.071Z,9.9
2017-09-20T01:17:07.725Z,9.9
2017-09-20T01:18:08.377Z,9.8
2017-09-20T01:19:09.335Z,9.8
2017-09-20T01:20:09.988Z,9.8
2017-09-20T01:21:10.671Z,9.8
2017-09-20T02:27:00.464Z,9.3
2017-09-20T02:28:01.117Z,9.2
2017-09-20T02:29:01.767Z,9.3
2017-09-20T02:30:02.420Z,9.3
2017-09-20T02:31:03.072Z,9.4
2017-09-20T02:32:03.973Z,9.4
2017-09-20T02:33:04.623Z,9.3
2017-09-20T02:34:05.275Z,9.3
2017-09-20T02:35:05.928Z,9.3
2017-09-20T02:36:06.578Z,9.3
2017-09-20T02:37:07.530Z,9.4
2017-09-20T02:38:08.182Z,9.3
2017-09-20T02:39:08.833Z,9.2
2017-09-20T02:40:09.485Z,9.3
2017-09-20T02:41:10.138Z,9.2
2017-09-20T02:42:11.089Z,9.2
2017-09-20T02:43:11.744Z,9.2
2017-09-20T02:44:12.391Z,9.2
2017-09-20T02:45:13.044Z,9.3
2017-09-20T02:46:13.694Z,9.2
2017-09-20T02:47:14.597Z,9.3
2017-09-20T02:48:15.286Z,9.4
2017-09-20T02:49:15.937Z,9.3
2017-09-20T02:50:16.587Z,9.4
2017-09-20T02:51:17.275Z,9.3
2017-09-20T02:52:18.227Z,9.3
2017-09-20T02:53:18.879Z,9.4
2017-09-20T02:54:19.531Z,9.3
2017-09-20T02:55:20.181Z,9.5
2017-09-20T02:56:20.832Z,9.5
2017-09-20T02:57:21.732Z,9.5
2017-09-20T02:58:22.385Z,9.5
2017-09-20T02:59:23.037Z,9.5
2017-09-20T03:00:23.689Z,9.5
2017-09-20T03:01:24.373Z,9.6
2017-09-20T03:02:25.274Z,9.5
2017-09-20T03:03:25.926Z,9.4
2017-09-20T03:04:26.578Z,9.5
2017-09-20T03:05:27.228Z,9.5
2017-09-20T03:06:27.885Z,9.5
2017-09-20T03:07:28.782Z,9.5
2017-09-20T03:08:29.435Z,9.5
2017-09-20T03:09:30.087Z,9.6
2017-09-20T03:10:30.739Z,9.6
2017-09-20T03:11:31.391Z,9.5
2017-09-20T03:12:32.293Z,9.5
2017-09-20T03:13:32.978Z,9.5
2017-09-20T03:14:33.630Z,9.4
2017-09-20T03:15:34.317Z,9.3
2017-09-20T03:16:34.969Z,9.4
2017-09-20T03:17:35.871Z,9.4
2017-09-20T03:18:36.524Z,9.4
2017-09-20T03:19:37.174Z,9.3
2017-09-20T03:20:37.824Z,9.4
2017-09-20T03:21:38.477Z,9.3
2017-09-20T03:22:39.379Z,9.3
2017-09-20T03:23:40.029Z,9.2
2017-09-20T03:24:40.681Z,9.2
2017-09-20T03:25:41.333Z,9.2
2017-09-20T03:26:41.984Z,9.2
2017-09-20T03:27:42.937Z,9.2
2017-09-20T03:28:43.589Z,9.2
2017-09-20T03:29:44.240Z,9.1
2017-09-20T03:30:44.894Z,9.1
2017-09-20T03:31:45.545Z,9.0
2017-09-20T03:32:46.447Z,9.1
2017-09-20T03:33:47.099Z,8.9
2017-09-20T03:34:47.749Z,8.9
2017-09-20T03:35:48.403Z,9.0
2017-09-20T03:36:49.055Z,8.9
2017-09-20T03:37:49.991Z,8.9
2017-09-20T03:38:50.641Z,8.9
2017-09-20T03:39:51.292Z,8.9
2017-09-20T03:40:51.944Z,8.9
2017-09-20T03:41:52.596Z,9.0
2017-09-20T03:42:53.498Z,9.0
2017-09-20T03:43:54.149Z,9.0
2017-09-20T03:44:54.802Z,9.0
2017-09-20T03:45:55.452Z,9.0
2017-09-20T03:46:56.103Z,8.9
2017-09-20T03:47:57.006Z,8.9
2017-09-20T03:48:57.657Z,9.0
2017-09-20T03:49:58.308Z,8.9
2017-09-20T03:50:58.961Z,8.9
2017-09-20T03:51:59.622Z,8.9
2017-09-20T03:53:00.514Z,8.9
2017-09-20T03:54:01.165Z,8.7
2017-09-20T03:55:01.816Z,8.7
2017-09-20T03:56:02.472Z,8.6
2017-09-20T03:57:03.154Z,8.7
2017-09-20T03:58:04.106Z,8.6
2017-09-20T03:59:04.756Z,8.7
2017-09-20T04:00:05.409Z,8.7
2017-09-20T04:01:06.060Z,8.7
2017-09-20T04:02:06.711Z,8.7
2017-09-20T04:03:07.613Z,8.7
2017-09-20T04:04:08.264Z,8.8
2017-09-20T04:05:08.914Z,8.7
2017-09-20T04:06:09.568Z,8.7
2017-09-20T04:07:10.225Z,8.7
2017-09-20T04:08:11.117Z,8.7
2017-09-20T04:09:11.802Z,8.7
2017-09-20T04:10:12.455Z,8.7
2017-09-20T04:11:13.107Z,8.7
2017-09-20T04:12:13.757Z,8.7
2017-09-20T04:13:14.659Z,8.8
2017-09-20T04:14:15.310Z,8.7
2017-09-20T04:15:15.963Z,8.8
2017-09-20T04:16:16.611Z,8.9
2017-09-20T04:17:17.264Z,8.8
2017-09-20T04:18:18.165Z,8.8
2017-09-20T04:19:18.816Z,8.8
2017-09-20T04:20:19.467Z,8.8
2017-09-20T04:21:20.119Z,8.8
2017-09-20T04:22:20.770Z,8.9
2017-09-20T04:23:21.471Z,8.9
2017-09-20T04:24:22.120Z,8.9
2017-09-20T04:25:22.772Z,9.0
2017-09-20T04:26:23.426Z,9.0
2017-09-20T04:27:24.077Z,9.1
2017-09-20T04:28:24.778Z,9.1
2017-09-20T04:29:25.428Z,9.1
2017-09-20T04:30:26.081Z,9.0
2017-09-20T04:31:26.765Z,9.1
2017-09-20T04:32:27.424Z,9.1
2017-09-20T04:33:28.126Z,9.0
2017-09-20T04:34:28.777Z,9.0
2017-09-20T04:35:29.433Z,9.1
2017-09-20T04:36:30.079Z,9.1
2017-09-20T04:37:30.736Z,9.1
2017-09-20T04:38:31.437Z,9.0
2017-09-20T04:39:32.089Z,9.0
2017-09-20T04:40:32.740Z,9.1
2017-09-20T04:41:33.394Z,9.0
2017-09-20T04:42:34.046Z,9.0
2017-09-20T04:43:34.783Z,9.1
2017-09-20T04:44:35.437Z,9.1
2017-09-20T04:45:36.090Z,9.1
2017-09-20T04:46:36.743Z,9.0
2017-09-20T04:47:37.395Z,9.0
2017-09-20T04:48:38.098Z,9.1
2017-09-20T04:49:38.752Z,9.2
2017-09-20T04:50:39.405Z,9.2
2017-09-20T04:51:40.055Z,9.3
2017-09-20T04:52:40.718Z,9.3
2017-09-20T04:53:41.423Z,9.5
2017-09-20T04:54:42.073Z,9.4
2017-09-20T04:55:42.726Z,9.6
2017-09-20T04:56:43.380Z,9.5
2017-09-20T04:57:44.028Z,9.5
2017-09-20T04:58:44.733Z,9.6
2017-09-20T04:59:45.387Z,9.7
2017-09-20T05:00:46.058Z,9.7
2017-09-20T05:01:46.696Z,9.8
2017-09-20T05:02:47.350Z,9.8
2017-09-20T05:03:48.054Z,9.8
2017-09-20T05:04:48.709Z,9.8
2017-09-20T05:05:49.362Z,9.8
2017-09-20T05:06:50.015Z,9.8
2017-09-20T05:07:50.669Z,9.9
2017-09-20T05:08:51.373Z,10.0
2017-09-20T05:09:52.027Z,9.9
2017-09-20T05:10:52.681Z,9.9
2017-09-20T05:11:53.363Z,10.0
2017-09-20T05:12:53.992Z,10.0
2017-09-20T05:13:54.896Z,10.0
2017-09-20T05:14:55.551Z,10.1
2017-09-20T05:15:56.206Z,10.0
2017-09-20T05:16:56.860Z,10.1
2017-09-20T05:17:57.516Z,10.1
2017-09-20T05:18:58.221Z,10.1
2017-09-20T05:19:58.876Z,10.2
2017-09-20T05:20:59.532Z,10.2
2017-09-20T05:22:00.188Z,10.2
2017-09-20T05:23:00.843Z,10.2
2017-09-20T05:24:01.548Z,10.2
2017-09-20T05:25:02.203Z,10.3
2017-09-20T05:26:02.860Z,10.3
2017-09-20T05:27:03.516Z,10.3
2017-09-20T05:28:04.175Z,10.4
2017-09-20T05:29:04.885Z,10.4
2017-09-20T05:30:05.544Z,10.4
2017-09-20T05:31:06.201Z,10.5
2017-09-20T05:32:06.857Z,10.5
2017-09-20T05:33:07.514Z,10.5
2017-09-20T05:34:08.222Z,10.5
2017-09-20T05:35:08.879Z,10.6
2017-09-20T05:36:09.539Z,10.5
2017-09-20T05:37:10.230Z,10.5
2017-09-20T05:38:10.888Z,10.5
2017-09-20T05:39:11.850Z,10.6
2017-09-20T05:40:12.507Z,10.6
2017-09-20T05:41:13.165Z,10.6
2017-09-20T05:42:13.822Z,10.7
2017-09-20T05:43:14.478Z,10.7
2017-09-20T05:44:15.186Z,10.7
2017-09-20T05:45:15.845Z,10.7
2017-09-20T05:46:16.502Z,10.8
2017-09-20T05:47:17.160Z,10.7
2017-09-20T05:48:17.817Z,10.8
2017-09-20T05:49:18.523Z,10.7
2017-09-20T05:50:19.185Z,10.8
2017-09-20T05:51:19.838Z,10.7
2017-09-20T05:52:20.495Z,10.8
2017-09-20T05:53:21.154Z,10.8
2017-09-20T05:54:21.892Z,10.8
2017-09-20T05:55:22.549Z,10.7
2017-09-20T05:56:23.205Z,10.7
2017-09-20T05:57:23.861Z,10.9
2017-09-20T05:58:24.517Z,10.8
2017-09-20T05:59:25.222Z,10.8
2017-09-20T06:00:25.878Z,10.7
2017-09-20T06:01:26.534Z,10.7
2017-09-20T06:02:27.193Z,10.8
2017-09-20T06:03:27.846Z,10.8
2017-09-20T06:04:28.554Z,10.8
2017-09-20T06:05:29.207Z,10.8
2017-09-20T06:06:29.866Z,10.8
2017-09-20T06:07:30.518Z,10.8
2017-09-20T06:08:31.172Z,10.9
2017-09-20T06:09:31.876Z,10.8
2017-09-20T06:10:32.530Z,10.8
2017-09-20T06:11:33.187Z,10.8
2017-09-20T06:12:33.842Z,10.8
2017-09-20T06:13:34.496Z,10.8
2017-09-20T06:14:35.201Z,10.8
2017-09-20T06:15:35.857Z,10.9
2017-09-20T06:16:36.514Z,10.8
2017-09-20T06:17:37.170Z,10.8
2017-09-20T06:18:37.828Z,10.8
2017-09-20T06:19:38.534Z,10.8
2017-09-20T06:20:39.190Z,10.9
2017-09-20T06:21:39.848Z,10.9
2017-09-20T06:22:40.504Z,10.9
2017-09-20T06:23:41.161Z,11.0
2017-09-20T06:24:41.867Z,11.0
2017-09-20T06:25:42.524Z,11.0
2017-09-20T06:26:43.182Z,11.1
2017-09-20T06:27:43.840Z,11.1
2017-09-20T06:28:44.496Z,11.2
2017-09-20T06:29:45.212Z,11.3
2017-09-20T06:30:45.869Z,11.4
2017-09-20T06:31:46.527Z,11.5
2017-09-20T06:32:47.185Z,11.5
2017-09-20T06:33:47.846Z,11.5
2017-09-20T06:34:48.555Z,11.5
2017-09-20T06:35:49.215Z,11.6
2017-09-20T06:36:49.871Z,11.6
2017-09-20T06:37:50.528Z,11.5
2017-09-20T06:38:51.186Z,11.5
2017-09-20T06:39:51.896Z,11.6
2017-09-20T06:40:52.553Z,11.7
2017-09-20T06:41:53.212Z,11.7
2017-09-20T06:42:53.869Z,11.7
2017-09-20T06:43:54.528Z,11.8
2017-09-20T06:44:55.237Z,11.7
2017-09-20T06:45:55.896Z,11.8
2017-09-20T06:46:56.553Z,11.8
2017-09-20T06:47:57.214Z,11.9
2017-09-20T06:48:57.872Z,11.9
2017-09-20T06:49:58.579Z,11.9
2017-09-20T06:50:59.238Z,11.9
2017-09-20T06:51:59.898Z,11.9
2017-09-20T06:53:00.590Z,11.9
2017-09-20T06:54:01.247Z,12.0
2017-09-20T06:55:01.954Z,12.1
2017-09-20T06:56:02.633Z,12.1
2017-09-20T06:57:03.292Z,11.9
2017-09-20T06:58:03.950Z,12.0
2017-09-20T06:59:04.609Z,12.0
2017-09-20T07:00:05.315Z,12.0
2017-09-20T07:01:05.977Z,12.0
2017-09-20T07:02:06.638Z,12.0
2017-09-20T07:03:07.337Z,12.0
2017-09-20T07:04:07.997Z,12.1
2017-09-20T07:05:08.746Z,12.1
2017-09-20T07:06:09.410Z,12.1
2017-09-20T07:07:10.069Z,12.1
2017-09-20T07:08:10.727Z,12.0
2017-09-20T07:09:11.385Z,12.0
2017-09-20T07:10:12.093Z,12.0
2017-09-20T07:11:12.751Z,12.0
2017-09-20T07:12:13.409Z,12.0
2017-09-20T07:13:14.068Z,12.1
2017-09-20T07:14:14.726Z,12.1
2017-09-20T07:15:15.437Z,12.1
2017-09-20T07:16:16.096Z,12.1
2017-09-20T07:17:16.753Z,12.2
2017-09-20T07:18:17.412Z,12.2
2017-09-20T07:19:18.070Z,12.1
2017-09-20T07:20:18.778Z,12.1
2017-09-20T07:21:19.436Z,12.2
2017-09-20T07:22:20.096Z,12.3
2017-09-20T07:23:20.753Z,12.3
2017-09-20T07:24:21.410Z,12.2
2017-09-20T07:25:22.120Z,12.2
2017-09-20T07:26:22.782Z,12.2
2017-09-20T07:27:23.437Z,12.3
2017-09-20T07:28:24.096Z,12.4
2017-09-20T07:29:24.765Z,12.5
2017-09-20T07:30:25.464Z,12.4
2017-09-20T07:31:26.123Z,12.4
2017-09-20T07:32:26.781Z,12.5
2017-09-20T07:33:27.490Z,12.5
2017-09-20T07:34:28.150Z,12.7
2017-09-20T07:35:28.859Z,12.6
2017-09-20T07:36:29.519Z,12.8
2017-09-20T07:37:30.178Z,12.6
2017-09-20T07:38:30.838Z,12.7
2017-09-20T07:39:31.498Z,12.8
2017-09-20T07:40:32.208Z,12.8
2017-09-20T07:41:32.866Z,12.7
2017-09-20T07:42:33.527Z,12.7
2017-09-20T07:43:34.189Z,12.8
2017-09-20T07:44:34.849Z,12.8
2017-09-20T07:45:35.559Z,12.9
2017-09-20T07:46:36.221Z,12.9
2017-09-20T07:47:36.881Z,12.9
2017-09-20T07:48:37.541Z,12.8
2017-09-20T07:49:38.203Z,12.9
2017-09-20T07:50:38.950Z,13.1
2017-09-20T07:51:39.612Z,13.1
2017-09-20T07:52:40.271Z,13.2
2017-09-20T07:53:40.930Z,13.3
2017-09-20T07:54:41.592Z,13.3
2017-09-20T07:55:42.303Z,13.3
2017-09-20T07:56:42.964Z,13.5
2017-09-20T07:57:43.624Z,13.4
2017-09-20T07:58:44.287Z,13.4
2017-09-20T07:59:44.946Z,13.4
2017-09-20T08:00:45.657Z,13.7
2017-09-20T08:01:46.316Z,13.7
2017-09-20T08:02:46.978Z,13.9
2017-09-20T08:03:47.639Z,14.0
2017-09-20T08:04:48.299Z,14.1
2017-09-20T08:05:49.012Z,14.3
2017-09-20T08:06:49.673Z,14.2
2017-09-20T08:07:50.341Z,14.2
2017-09-20T08:08:50.994Z,14.2
2017-09-20T08:09:51.691Z,14.1
2017-09-20T08:10:52.402Z,14.2
2017-09-20T08:11:53.062Z,14.2
2017-09-20T08:12:53.725Z,14.3
2017-09-20T08:13:54.387Z,14.2
2017-09-20T08:14:55.048Z,14.4
2017-09-20T08:15:55.758Z,14.5
2017-09-20T08:16:56.418Z,14.6
2017-09-20T08:17:57.081Z,14.7
2017-09-20T08:18:57.739Z,14.8
2017-09-20T08:19:58.404Z,14.9
2017-09-20T08:20:59.152Z,14.9
2017-09-20T08:21:59.812Z,14.8
2017-09-20T08:23:00.482Z,14.8
2017-09-20T08:24:01.140Z,14.5
2017-09-20T08:25:01.795Z,14.8
2017-09-20T08:26:02.508Z,14.9
2017-09-20T08:27:03.170Z,14.9
2017-09-20T08:28:03.834Z,14.9
2017-09-20T08:29:04.502Z,15.0
2017-09-20T08:30:05.162Z,14.9
2017-09-20T08:31:05.873Z,14.9
2017-09-20T08:32:06.533Z,14.8
2017-09-20T08:33:07.195Z,14.9
2017-09-20T08:34:07.858Z,15.0
2017-09-20T08:35:08.521Z,15.1
2017-09-20T08:36:09.235Z,15.0
2017-09-20T08:37:09.932Z,15.0
2017-09-20T08:38:10.592Z,15.0
2017-09-20T08:39:11.260Z,15.2
2017-09-20T08:40:11.921Z,15.3
2017-09-20T08:41:12.628Z,15.5
2017-09-20T08:42:13.293Z,15.7
2017-09-20T08:43:13.960Z,15.9
2017-09-20T08:44:14.629Z,16.0
2017-09-20T08:45:15.324Z,16.0
2017-09-20T08:46:16.037Z,15.8
2017-09-20T08:47:16.700Z,15.8
2017-09-20T08:48:17.367Z,15.8
2017-09-20T08:49:18.025Z,15.6
2017-09-20T08:50:18.687Z,15.6
2017-09-20T08:51:19.650Z,15.5
2017-09-20T08:52:20.314Z,15.3
2017-09-20T08:53:20.974Z,15.4
2017-09-20T08:54:21.635Z,15.3
2017-09-20T08:55:22.296Z,15.4
2017-09-20T08:56:23.007Z,15.5
2017-09-20T08:57:23.669Z,15.5
2017-09-20T08:58:24.365Z,15.7
2017-09-20T08:59:24.998Z,15.6
2017-09-20T09:00:25.658Z,15.6
2017-09-20T09:01:26.369Z,15.8
2017-09-20T09:02:27.030Z,15.9
2017-09-20T09:03:27.693Z,15.7
2017-09-20T09:04:28.360Z,15.8
2017-09-20T09:05:29.022Z,16.1
2017-09-20T09:06:29.736Z,16.1
2017-09-20T09:07:30.400Z,16.2
2017-09-20T09:08:31.065Z,16.1
2017-09-20T09:09:31.727Z,16.1
2017-09-20T09:10:32.390Z,16.3
2017-09-20T09:11:33.101Z,16.5
2017-09-20T09:12:33.764Z,16.9
2017-09-20T09:13:34.427Z,17.4
2017-09-20T09:14:35.092Z,17.4
2017-09-20T09:15:35.754Z,17.5
2017-09-20T09:16:36.467Z,17.5
2017-09-20T09:17:37.131Z,17.3
2017-09-20T09:18:37.794Z,17.3
2017-09-20T09:19:38.459Z,17.2
2017-09-20T09:20:39.119Z,17.2
2017-09-20T09:21:39.839Z,16.9
2017-09-20T09:22:40.496Z,16.9
2017-09-20T09:23:41.158Z,16.5
2017-09-20T09:24:41.822Z,16.5
2017-09-20T09:25:42.485Z,16.5
2017-09-20T09:26:43.197Z,16.6
2017-09-20T09:27:43.858Z,16.5
2017-09-20T09:28:44.520Z,17.3
2017-09-20T09:29:45.184Z,17.9
2017-09-20T09:30:45.846Z,18.6
2017-09-20T09:31:46.562Z,19.3
2017-09-20T09:32:47.227Z,20.2
2017-09-20T09:33:47.891Z,19.9
2017-09-20T09:34:48.557Z,20.3
2017-09-20T09:35:49.222Z,20.9
2017-09-20T09:36:49.936Z,21.8
2017-09-20T09:37:50.601Z,21.9
2017-09-20T09:38:51.268Z,21.8
2017-09-20T09:39:51.935Z,22.2
2017-09-20T09:40:52.602Z,22.0
2017-09-20T09:41:53.319Z,21.9
2017-09-20T09:42:53.984Z,21.9
2017-09-20T09:43:54.653Z,21.9
2017-09-20T09:44:55.320Z,22.5
2017-09-20T09:45:55.987Z,23.4
2017-09-20T09:46:56.956Z,23.8
2017-09-20T09:47:57.623Z,23.4
2017-09-20T09:48:58.291Z,22.9
2017-09-20T09:49:58.955Z,22.5
2017-09-20T09:50:59.625Z,22.6
2017-09-20T09:52:00.344Z,22.7
2017-09-20T09:53:01.013Z,23.6
2017-09-20T09:54:01.680Z,24.5
2017-09-20T09:55:02.347Z,23.8
2017-09-20T09:56:03.015Z,22.9
2017-09-20T09:57:03.733Z,23.6
2017-09-20T09:58:04.401Z,24.2
2017-09-20T09:59:05.068Z,24.1
2017-09-20T10:00:05.739Z,24.3
2017-09-20T10:01:06.410Z,24.2
2017-09-20T10:02:07.168Z,23.8
2017-09-20T10:03:07.841Z,23.4
2017-09-20T10:04:08.537Z,22.5
2017-09-20T10:05:09.236Z,22.4
2017-09-20T10:06:09.906Z,22.0
2017-09-20T10:07:10.624Z,22.0
2017-09-20T10:08:11.294Z,22.0
2017-09-20T10:09:11.968Z,23.5
2017-09-20T10:10:12.632Z,24.7
2017-09-20T10:11:13.301Z,25.0
2017-09-20T10:12:14.018Z,24.9
2017-09-20T10:13:14.683Z,22.9
2017-09-20T10:14:15.351Z,21.8
2017-09-20T10:15:16.019Z,22.5
2017-09-20T10:16:16.694Z,23.6
2017-09-20T10:17:17.410Z,24.1
2017-09-20T10:18:18.079Z,24.5
2017-09-20T10:19:18.748Z,23.6
2017-09-20T10:20:19.415Z,23.0
2017-09-20T10:21:20.080Z,22.3
2017-09-20T10:22:20.797Z,22.1
2017-09-20T10:23:21.466Z,22.2
2017-09-20T10:24:22.134Z,22.5
2017-09-20T10:25:22.801Z,22.5
2017-09-20T10:26:23.470Z,22.4
2017-09-20T10:27:24.222Z,22.2
2017-09-20T10:28:24.888Z,21.6
2017-09-20T10:29:25.554Z,21.6
2017-09-20T10:30:26.219Z,21.6
2017-09-20T10:31:26.884Z,21.0
2017-09-20T10:32:27.601Z,20.7
2017-09-20T10:33:28.270Z,20.6
2017-09-20T10:34:28.937Z,20.6
2017-09-20T10:35:29.602Z,20.2
2017-09-20T10:36:30.268Z,20.1
2017-09-20T10:37:30.983Z,19.7
2017-09-20T10:38:31.684Z,19.8
2017-09-20T10:39:32.351Z,21.9
2017-09-20T10:40:33.018Z,21.5
2017-09-20T10:41:33.687Z,21.9
2017-09-20T10:42:34.406Z,23.8
2017-09-20T10:43:35.075Z,25.2
2017-09-20T10:44:35.744Z,26.1
2017-09-20T10:45:36.411Z,26.2
2017-09-20T10:46:37.080Z,25.6
2017-09-20T10:47:37.797Z,26.5
2017-09-20T10:48:38.467Z,27.0
2017-09-20T10:49:39.140Z,27.4
2017-09-20T10:50:39.809Z,27.4
2017-09-20T10:51:40.479Z,28.5
2017-09-20T10:52:41.199Z,28.3
2017-09-20T10:53:41.868Z,28.6
2017-09-20T10:54:42.537Z,29.0
2017-09-20T10:55:43.207Z,29.6
2017-09-20T10:56:43.877Z,29.2
2017-09-20T10:57:44.601Z,28.5
2017-09-20T10:58:45.265Z,29.1
2017-09-20T10:59:45.931Z,27.2
2017-09-20T11:00:46.598Z,25.8
2017-09-20T11:01:47.267Z,24.9
2017-09-20T11:02:47.984Z,24.6
2017-09-20T11:03:48.652Z,24.2
2017-09-20T11:04:49.320Z,23.8
2017-09-20T11:05:49.988Z,23.6
2017-09-20T11:06:50.655Z,23.4
2017-09-20T11:07:51.371Z,23.5
2017-09-20T11:08:52.073Z,23.8
2017-09-20T11:09:52.742Z,23.9
2017-09-20T11:10:53.409Z,23.9
2017-09-20T11:11:54.077Z,24.3
2017-09-20T11:12:54.797Z,24.3
2017-09-20T11:13:55.476Z,24.9
2017-09-20T11:14:56.145Z,25.7
2017-09-20T11:15:56.814Z,26.0
2017-09-20T11:16:57.483Z,27.0
2017-09-20T11:17:58.200Z,27.4
2017-09-20T11:18:58.874Z,28.1
2017-09-20T11:19:59.538Z,28.6
2017-09-20T11:21:00.209Z,28.8
2017-09-20T11:22:00.879Z,28.3
2017-09-20T11:23:01.602Z,28.6
2017-09-20T11:24:02.270Z,27.8
2017-09-20T11:25:02.940Z,29.1
2017-09-20T11:26:03.644Z,30.1
2017-09-20T11:27:04.315Z,30.8
2017-09-20T11:28:05.034Z,30.0
2017-09-20T11:29:05.704Z,30.7
2017-09-20T11:30:06.374Z,31.2
2017-09-20T11:31:07.042Z,31.6
2017-09-20T11:32:07.712Z,31.1
2017-09-20T11:33:08.431Z,32.5
2017-09-20T11:34:09.099Z,30.9
2017-09-20T11:35:09.767Z,29.9
2017-09-20T11:36:10.470Z,28.7
2017-09-20T11:37:11.138Z,27.3
2017-09-20T11:38:11.855Z,26.5
2017-09-20T11:39:12.522Z,26.3
2017-09-20T11:40:13.189Z,25.9
2017-09-20T11:41:13.856Z,25.4
2017-09-20T11:42:14.524Z,25.1
2017-09-20T11:43:15.243Z,24.9
2017-09-20T11:44:15.911Z,24.5
2017-09-20T11:45:16.578Z,23.8
2017-09-20T11:46:17.277Z,22.9
2017-09-20T11:47:17.944Z,22.5
2017-09-20T11:48:18.662Z,22.0
2017-09-20T11:49:19.331Z,21.3
2017-09-20T11:50:20.004Z,21.6
2017-09-20T11:51:20.666Z,21.5
2017-09-20T11:52:21.332Z,21.3
2017-09-20T11:53:22.049Z,21.0
2017-09-20T11:54:22.715Z,20.8
2017-09-20T11:55:23.383Z,20.7
2017-09-20T11:56:24.048Z,20.3
2017-09-20T11:57:24.713Z,20.1
2017-09-20T11:58:25.427Z,19.9
2017-09-20T11:59:26.090Z,19.9
2017-09-20T12:00:26.752Z,19.7
2017-09-20T12:01:27.416Z,19.5
2017-09-20T12:02:28.080Z,19.5
2017-09-20T12:03:28.793Z,19.3
2017-09-20T12:04:29.457Z,18.9
2017-09-20T12:05:30.119Z,18.8
2017-09-20T12:06:30.783Z,18.5
2017-09-20T12:07:31.445Z,18.1
2017-09-20T12:08:32.217Z,18.0
2017-09-20T12:09:32.881Z,17.8
2017-09-20T12:10:33.542Z,17.8
2017-09-20T12:11:34.206Z,17.5
2017-09-20T12:12:34.869Z,17.4
2017-09-20T12:13:35.584Z,17.4
2017-09-20T12:14:36.245Z,17.3
2017-09-20T12:15:36.908Z,17.2
2017-09-20T12:16:37.571Z,17.2
2017-09-20T12:17:38.235Z,17.2
2017-09-20T12:18:38.960Z,17.3
2017-09-20T12:19:39.624Z,17.4
2017-09-20T12:20:40.321Z,17.5
2017-09-20T12:21:41.018Z,17.5
2017-09-20T12:22:41.679Z,17.6
2017-09-20T12:23:42.392Z,17.4
2017-09-20T12:24:43.057Z,17.5
2017-09-20T12:25:43.719Z,17.3
2017-09-20T12:26:44.383Z,17.6
2017-09-20T12:27:45.049Z,17.6
2017-09-20T12:28:45.796Z,17.7
2017-09-20T12:29:46.454Z,17.7
2017-09-20T12:30:47.117Z,17.7
2017-09-20T12:31:47.778Z,17.6
2017-09-20T12:32:48.442Z,17.7
2017-09-20T12:33:49.155Z,17.6
2017-09-20T12:34:49.816Z,17.5
2017-09-20T12:35:50.477Z,17.3
2017-09-20T12:36:51.139Z,17.2
2017-09-20T12:37:51.803Z,17.2
2017-09-20T12:38:52.515Z,17.1
2017-09-20T12:39:53.177Z,16.9
2017-09-20T12:40:53.845Z,16.7
2017-09-20T12:41:54.503Z,16.8
2017-09-20T12:42:55.165Z,16.8
2017-09-20T12:43:55.877Z,16.9
2017-09-20T12:44:56.537Z,16.8
2017-09-20T12:45:57.200Z,16.8
2017-09-20T12:46:57.861Z,16.8
2017-09-20T12:47:58.524Z,16.8
2017-09-20T12:48:59.236Z,17.0
2017-09-20T12:49:59.898Z,17.0
2017-09-20T12:51:00.558Z,17.1
2017-09-20T12:52:01.220Z,17.2
2017-09-20T12:53:01.883Z,17.1
2017-09-20T12:54:02.596Z,17.2
2017-09-20T12:55:03.256Z,17.2
2017-09-20T12:56:03.920Z,17.1
2017-09-20T12:57:04.580Z,17.2
2017-09-20T12:58:05.241Z,17.3
2017-09-20T12:59:05.955Z,17.3
2017-09-20T13:00:06.617Z,17.4
2017-09-20T13:01:07.280Z,17.8
2017-09-20T13:02:07.945Z,17.5
2017-09-20T13:03:08.609Z,17.4
2017-09-20T13:04:09.355Z,17.3
2017-09-20T13:05:10.017Z,17.4
2017-09-20T13:06:10.682Z,17.5
2017-09-20T13:07:11.374Z,17.5
2017-09-20T13:08:12.037Z,17.3
2017-09-20T13:09:12.748Z,17.3
2017-09-20T13:10:13.409Z,16.9
2017-09-20T13:11:14.071Z,17.1
2017-09-20T13:12:14.735Z,17.1
2017-09-20T13:13:15.396Z,17.1
2017-09-20T13:14:16.108Z,17.1
2017-09-20T13:15:16.770Z,16.9
2017-09-20T13:16:17.433Z,17.0
2017-09-20T13:17:18.095Z,17.0
2017-09-20T13:18:18.755Z,16.9
2017-09-20T13:19:19.468Z,17.0
2017-09-20T13:20:20.135Z,16.7
2017-09-20T13:21:20.794Z,16.7
2017-09-20T13:22:21.455Z,16.7
2017-09-20T13:23:22.154Z,16.7
2017-09-20T13:24:22.864Z,16.6
2017-09-20T13:25:23.526Z,16.5
2017-09-20T13:26:24.199Z,16.4
2017-09-20T13:27:24.858Z,16.5
2017-09-20T13:28:25.520Z,16.4
2017-09-20T13:29:26.231Z,16.3
2017-09-20T13:30:26.892Z,16.2
2017-09-20T13:31:27.554Z,16.2
2017-09-20T13:32:28.214Z,16.2
2017-09-20T13:33:28.875Z,16.3
2017-09-20T13:34:29.586Z,16.2
2017-09-20T13:35:30.250Z,16.0
2017-09-20T13:36:30.911Z,16.2
2017-09-20T13:37:31.572Z,16.2
2017-09-20T13:38:32.267Z,16.1
2017-09-20T13:39:32.978Z,16.1
2017-09-20T13:40:33.639Z,16.1
2017-09-20T13:41:34.299Z,16.0
2017-09-20T13:42:34.960Z,15.9
2017-09-20T13:43:35.621Z,15.9
2017-09-20T13:44:36.331Z,16.0
2017-09-20T13:45:36.990Z,15.9
2017-09-20T13:46:37.650Z,15.9
2017-09-20T13:47:38.310Z,15.9
2017-09-20T13:48:38.970Z,16.0
2017-09-20T13:49:39.681Z,15.9
2017-09-20T13:50:40.344Z,16.0
2017-09-20T13:51:41.005Z,16.0
2017-09-20T13:52:41.665Z,15.9
2017-09-20T13:53:42.325Z,15.9
2017-09-20T13:54:43.036Z,15.8
2017-09-20T13:55:43.695Z,15.9
2017-09-20T13:56:44.357Z,15.8
2017-09-20T13:57:45.017Z,15.9
2017-09-20T13:58:45.676Z,16.0
2017-09-20T13:59:46.387Z,15.9
2017-09-20T14:00:47.048Z,15.8
2017-09-20T14:01:47.707Z,15.8
2017-09-20T14:02:48.368Z,15.6
2017-09-20T14:03:49.062Z,15.6
2017-09-20T14:04:49.773Z,15.5
2017-09-20T14:05:50.435Z,15.6
2017-09-20T14:06:51.093Z,15.5
2017-09-20T14:07:51.758Z,15.6
2017-09-20T14:08:52.420Z,15.6
2017-09-20T14:09:53.129Z,15.6
2017-09-20T14:10:53.788Z,15.7
2017-09-20T14:11:54.446Z,15.6
2017-09-20T14:12:55.107Z,15.6
2017-09-20T14:13:55.766Z,15.7
2017-09-20T14:14:56.488Z,15.5
2017-09-20T14:15:57.137Z,15.6
2017-09-20T14:16:57.794Z,15.6
2017-09-20T14:17:58.455Z,15.6
2017-09-20T14:18:59.114Z,15.7
2017-09-20T14:19:59.825Z,15.7
2017-09-20T14:21:00.518Z,15.7
2017-09-20T14:22:01.185Z,15.6
2017-09-20T14:23:01.875Z,15.6
2017-09-20T14:24:02.535Z,15.6
2017-09-20T14:25:03.246Z,15.5
2017-09-20T14:26:03.905Z,15.5
2017-09-20T14:27:04.598Z,15.5
2017-09-20T14:28:05.298Z,15.5
2017-09-20T14:29:05.953Z,15.4
2017-09-20T14:30:06.696Z,15.4
2017-09-20T14:31:07.357Z,15.3
2017-09-20T14:32:08.079Z,15.2
2017-09-20T14:33:08.762Z,15.2
2017-09-20T14:34:09.421Z,15.0
2017-09-20T14:35:10.130Z,15.0
2017-09-20T14:36:10.788Z,15.1
2017-09-20T14:37:11.446Z,15.0
2017-09-20T14:38:12.105Z,15.0